NAC35 KHYA-KPVD
Flight info
| Callsign | NAC35 |
|---|---|
| Flight time | 0h 21m |
| Altitude | 14000 |
| Route | ZUNUX V167 TUTOR CUSKA |
| Aircraft | B737/M-SDE2E3FGHIRWXY/LB1 |
Departure
| Time | 2026-04-27 20:10 |
|---|---|
| Airport | Cape Cod Gateway Airport (KHYA) |
Arrival
| Time | 2026-04-27 20:31 |
|---|---|
| Airport | Rhode Island T. F. Green International Airport (KPVD) |
| Time | Latitude | Longitude | Altitude | Speed | Heading |
|---|---|---|---|---|---|
| 2026-04-27 19:35 | 41.66748 | -70.28659 | 0 ft | 0 kts | 231° |
| 2026-04-27 20:05 | 41.66745 | -70.28660 | 0 ft | 1 kts | 205° |
| 2026-04-27 20:05 | 41.66728 | -70.28605 | 53 ft | 14 kts | 102° |
| 2026-04-27 20:06 | 41.66676 | -70.28476 | 55 ft | 16 kts | 136° |
| 2026-04-27 20:06 | 41.66585 | -70.28374 | 54 ft | 14 kts | 141° |
| 2026-04-27 20:06 | 41.66555 | -70.28340 | 54 ft | 0 kts | 139° |
| 2026-04-27 20:06 | 41.66548 | -70.28333 | 53 ft | 1 kts | 139° |
| 2026-04-27 20:07 | 41.66543 | -70.28327 | 53 ft | 2 kts | 140° |
| 2026-04-27 20:07 | 41.66539 | -70.28323 | 53 ft | 0 kts | 140° |
| 2026-04-27 20:08 | 41.66532 | -70.28315 | 53 ft | 8 kts | 140° |
| 2026-04-27 20:08 | 41.66482 | -70.28252 | 53 ft | 2 kts | 104° |
| 2026-04-27 20:08 | 41.66487 | -70.28239 | 50 ft | 0 kts | 54° |
| 2026-04-27 20:09 | 41.66488 | -70.28237 | 51 ft | 4 kts | 54° |
| 2026-04-27 20:09 | 41.66838 | -70.27683 | 50 ft | 115 kts | 49° |
| 2026-04-27 20:09 | 41.67516 | -70.26620 | 179 ft | 172 kts | 49° |
| 2026-04-27 20:10 | 41.68277 | -70.25352 | 1080 ft | 184 kts | 49° |
| 2026-04-27 20:10 | 41.68852 | -70.24428 | 1608 ft | 199 kts | 47° |
| 2026-04-27 20:10 | 41.69812 | -70.23009 | 2502 ft | 209 kts | 35° |
| 2026-04-27 20:10 | 41.71174 | -70.22309 | 3212 ft | 224 kts | 359° |
| 2026-04-27 20:11 | 41.72696 | -70.22827 | 3910 ft | 236 kts | 326° |
| 2026-04-27 20:11 | 41.73780 | -70.24510 | 4495 ft | 246 kts | 288° |
| 2026-04-27 20:11 | 41.74036 | -70.26728 | 5339 ft | 246 kts | 271° |
| 2026-04-27 20:11 | 41.74020 | -70.29024 | 5779 ft | 248 kts | 267° |
| 2026-04-27 20:12 | 41.73928 | -70.31341 | 5984 ft | 249 kts | 267° |
| 2026-04-27 20:12 | 41.73837 | -70.33630 | 5987 ft | 243 kts | 267° |
| 2026-04-27 20:12 | 41.73763 | -70.35869 | 5991 ft | 240 kts | 268° |
| 2026-04-27 20:12 | 41.73709 | -70.38115 | 6037 ft | 244 kts | 268° |
| 2026-04-27 20:13 | 41.73658 | -70.40403 | 5961 ft | 244 kts | 268° |
| 2026-04-27 20:13 | 41.73613 | -70.42637 | 6014 ft | 238 kts | 268° |
| 2026-04-27 20:13 | 41.73574 | -70.44837 | 6006 ft | 236 kts | 269° |
| 2026-04-27 20:13 | 41.73547 | -70.47047 | 6053 ft | 239 kts | 269° |
| 2026-04-27 20:14 | 41.73525 | -70.49290 | 6007 ft | 241 kts | 269° |
| 2026-04-27 20:14 | 41.73501 | -70.51526 | 6006 ft | 240 kts | 269° |
| 2026-04-27 20:14 | 41.73479 | -70.53758 | 6002 ft | 239 kts | 269° |
| 2026-04-27 20:14 | 41.73457 | -70.55981 | 6005 ft | 238 kts | 269° |
| 2026-04-27 20:15 | 41.73437 | -70.58200 | 6011 ft | 238 kts | 269° |
| 2026-04-27 20:15 | 41.73420 | -70.60429 | 6009 ft | 242 kts | 269° |
| 2026-04-27 20:15 | 41.73399 | -70.62669 | 6063 ft | 241 kts | 269° |
| 2026-04-27 20:15 | 41.73376 | -70.64913 | 6005 ft | 241 kts | 269° |
| 2026-04-27 20:16 | 41.73344 | -70.67145 | 6030 ft | 239 kts | 269° |
| 2026-04-27 20:16 | 41.73324 | -70.69366 | 6034 ft | 238 kts | 269° |
| 2026-04-27 20:16 | 41.73311 | -70.71590 | 6018 ft | 239 kts | 270° |
| 2026-04-27 20:16 | 41.73297 | -70.73817 | 6022 ft | 240 kts | 270° |
| 2026-04-27 20:17 | 41.73277 | -70.76056 | 6000 ft | 241 kts | 269° |
| 2026-04-27 20:17 | 41.73258 | -70.78304 | 6049 ft | 241 kts | 269° |
| 2026-04-27 20:17 | 41.73231 | -70.80563 | 6055 ft | 244 kts | 268° |
| 2026-04-27 20:17 | 41.73189 | -70.82850 | 5993 ft | 246 kts | 268° |
| 2026-04-27 20:18 | 41.73156 | -70.85107 | 5844 ft | 240 kts | 269° |
| 2026-04-27 20:18 | 41.73134 | -70.87322 | 5611 ft | 237 kts | 269° |
| 2026-04-27 20:18 | 41.73113 | -70.89523 | 5302 ft | 237 kts | 269° |
| 2026-04-27 20:18 | 41.73093 | -70.91729 | 5121 ft | 236 kts | 269° |
| 2026-04-27 20:19 | 41.73071 | -70.93914 | 4834 ft | 235 kts | 269° |
| 2026-04-27 20:19 | 41.73014 | -70.96073 | 4766 ft | 228 kts | 269° |
| 2026-04-27 20:19 | 41.73005 | -70.98193 | 4560 ft | 227 kts | 270° |
| 2026-04-27 20:19 | 41.72994 | -71.00297 | 4365 ft | 225 kts | 269° |
| 2026-04-27 20:20 | 41.72977 | -71.02385 | 4087 ft | 224 kts | 269° |
| 2026-04-27 20:20 | 41.72956 | -71.04463 | 3814 ft | 223 kts | 269° |
| 2026-04-27 20:20 | 41.72933 | -71.06536 | 3526 ft | 222 kts | 269° |
| 2026-04-27 20:20 | 41.72909 | -71.08601 | 3245 ft | 222 kts | 269° |
| 2026-04-27 20:21 | 41.72884 | -71.10660 | 3056 ft | 221 kts | 269° |
| 2026-04-27 20:21 | 41.72856 | -71.12727 | 3059 ft | 223 kts | 269° |
| 2026-04-27 20:21 | 41.72836 | -71.14828 | 3017 ft | 229 kts | 269° |
| 2026-04-27 20:21 | 41.72810 | -71.16974 | 3036 ft | 232 kts | 269° |
| 2026-04-27 20:22 | 41.72765 | -71.19128 | 3045 ft | 229 kts | 269° |
| 2026-04-27 20:22 | 41.72600 | -71.21256 | 2948 ft | 234 kts | 254° |
| 2026-04-27 20:22 | 41.71849 | -71.23119 | 3014 ft | 226 kts | 229° |
| 2026-04-27 20:22 | 41.70619 | -71.24420 | 3012 ft | 228 kts | 216° |
| 2026-04-27 20:23 | 41.69299 | -71.25588 | 3034 ft | 228 kts | 216° |
| 2026-04-27 20:23 | 41.67951 | -71.26775 | 2989 ft | 236 kts | 217° |
| 2026-04-27 20:23 | 41.66587 | -71.28007 | 3034 ft | 239 kts | 216° |
| 2026-04-27 20:23 | 41.65214 | -71.29233 | 2974 ft | 232 kts | 216° |
| 2026-04-27 20:24 | 41.63884 | -71.30412 | 2984 ft | 228 kts | 216° |
| 2026-04-27 20:24 | 41.62565 | -71.31578 | 2997 ft | 228 kts | 216° |
| 2026-04-27 20:24 | 41.61238 | -71.32755 | 3008 ft | 231 kts | 216° |
| 2026-04-27 20:24 | 41.59895 | -71.33950 | 3004 ft | 233 kts | 216° |
| 2026-04-27 20:25 | 41.58541 | -71.35153 | 3005 ft | 234 kts | 216° |
| 2026-04-27 20:25 | 41.57198 | -71.36345 | 3005 ft | 235 kts | 216° |
| 2026-04-27 20:25 | 41.55845 | -71.37582 | 3054 ft | 236 kts | 222° |
| 2026-04-27 20:25 | 41.54838 | -71.39253 | 3033 ft | 228 kts | 246° |
| 2026-04-27 20:26 | 41.54486 | -71.41242 | 2989 ft | 215 kts | 272° |
| 2026-04-27 20:26 | 41.54841 | -71.43137 | 3012 ft | 212 kts | 296° |
| 2026-04-27 20:26 | 41.55545 | -71.44875 | 3044 ft | 212 kts | 294° |
| 2026-04-27 20:26 | 41.56233 | -71.46625 | 3035 ft | 214 kts | 296° |
| 2026-04-27 20:27 | 41.56925 | -71.48373 | 2989 ft | 211 kts | 296° |
| 2026-04-27 20:27 | 41.57596 | -71.50068 | 2935 ft | 201 kts | 296° |
| 2026-04-27 20:27 | 41.58225 | -71.51659 | 2900 ft | 188 kts | 298° |
| 2026-04-27 20:27 | 41.58848 | -71.52918 | 2858 ft | 185 kts | 314° |
| 2026-04-27 20:28 | 41.59938 | -71.53735 | 2764 ft | 178 kts | 345° |
| 2026-04-27 20:28 | 41.61127 | -71.53655 | 2468 ft | 171 kts | 17° |
| 2026-04-27 20:28 | 41.62181 | -71.52875 | 2098 ft | 178 kts | 36° |
| 2026-04-27 20:28 | 41.62738 | -71.52046 | 1792 ft | 184 kts | 53° |
| 2026-04-27 20:29 | 41.63806 | -71.50204 | 1567 ft | 184 kts | 41° |
| 2026-04-27 20:29 | 41.64735 | -71.49140 | 1469 ft | 171 kts | 33° |
| 2026-04-27 20:29 | 41.65702 | -71.48220 | 1287 ft | 172 kts | 33° |
| 2026-04-27 20:29 | 41.66672 | -71.47372 | 1094 ft | 163 kts | 25° |
| 2026-04-27 20:30 | 41.67645 | -71.46590 | 868 ft | 164 kts | 30° |
| 2026-04-27 20:30 | 41.68610 | -71.45777 | 718 ft | 165 kts | 29° |
| 2026-04-27 20:30 | 41.69607 | -71.44967 | 515 ft | 166 kts | 27° |
| 2026-04-27 20:30 | 41.70576 | -71.44168 | 213 ft | 159 kts | 30° |
| 2026-04-27 20:31 | 41.71473 | -71.43426 | 61 ft | 138 kts | 31° |
| 2026-04-27 20:31 | 41.72138 | -71.42858 | 58 ft | 83 kts | 33° |
| 2026-04-27 20:31 | 41.72420 | -71.42661 | 58 ft | 16 kts | 357° |
| 2026-04-27 20:31 | 41.72443 | -71.42673 | 54 ft | 3 kts | 327° |
| 2026-04-27 20:32 | 41.72450 | -71.42680 | 56 ft | 1 kts | 319° |
| 2026-04-27 20:32 | 41.72451 | -71.42682 | 56 ft | 0 kts | 317° |
| 2026-04-27 20:32 | 41.72455 | -71.42687 | 56 ft | 5 kts | 316° |
| 2026-04-27 20:33 | 41.72511 | -71.42721 | 54 ft | 11 kts | 19° |
| 2026-04-27 20:33 | 41.72593 | -71.42653 | 54 ft | 16 kts | 32° |
| 2026-04-27 20:33 | 41.72694 | -71.42573 | 54 ft | 17 kts | 20° |
| 2026-04-27 20:33 | 41.72794 | -71.42638 | 59 ft | 17 kts | 326° |
| 2026-04-27 20:34 | 41.72908 | -71.42686 | 54 ft | 18 kts | 347° |
| 2026-04-27 20:34 | 41.73031 | -71.42727 | 55 ft | 18 kts | 347° |
| 2026-04-27 20:34 | 41.73149 | -71.42759 | 57 ft | 15 kts | 10° |
| 2026-04-27 20:34 | 41.73178 | -71.42679 | 62 ft | 10 kts | 85° |
| 2026-04-27 20:35 | 41.73176 | -71.42589 | 62 ft | 9 kts | 89° |
| 2026-04-27 20:35 | 41.73166 | -71.42561 | 57 ft | 7 kts | 146° |
| 2026-04-27 20:35 | 41.73116 | -71.42559 | 55 ft | 1 kts | 178° |
| 2026-04-27 20:35 | 41.73115 | -71.42558 | 56 ft | 0 kts | 178° |